Martinsville, VA

7:48 AM EDT on May 29, 2017 (GMT -0400)
Blue Ridge

Weather History for KMTV - May, 2013

Change the Weather History Date:

Saturday, May 25, 2013

  Actual Average (KINT) Record (KINT)
Temperature  
Mean Temperature 58 °F -  
Max Temperature 75 °F 76 °F 91 °F (1975)
Min Temperature 40 °F 57 °F 41 °F (2013)
Degree Days  
Heating Degree Days 8    
Growing Degree Days 8 (Base 50)    
Moisture  
Dew Point 35 °F    
Average Humidity 45    
Maximum Humidity 89    
Minimum Humidity 22    
Precipitation  
Precipitation 0.00 in - - ()
Sea Level Pressure  
Sea Level Pressure 30.24 in    
Wind  
Wind Speed 5 mph (NNW)    
Max Wind Speed 16 mph    
Max Gust Speed 24 mph    
Visibility 10 miles    
Events      
Averages and records for this station are not official NWS values.
T = Trace of Precipitation, MM = Missing Value Source: NWS Daily Summary

Daily Weather History Graph

Daily Weather History Graph

Search for Another Location

Airport or City:

Trip Planner

Search our weather history database for the weather conditions in past years. The results will help you decide how hot, cold, wet, or windy it might be!

Date:

Astronomy

May. 25, 2013 Rise Set
Actual Time 6:05 AM EDT 8:28 PM EDT
Civil Twilight 5:36 AM EDT 8:58 PM EDT
Nautical Twilight 4:59 AM EDT 9:34 PM EDT
Astronomical Twilight 4:19 AM EDT 10:14 PM EDT
Moon 9:15 PM EDT (5/25) 6:30 AM EDT (5/25)
Length of Visible Light 15h 21m
Length of Day
14h 22m
Full, 100% of the Moon is Illuminated
May 25
Full
May 31
Last Quarter
Jun 8
New
Jun 16
First Quarter
Jun 23
Full

Hourly Weather History & Observations

Time (EDT) Temp. Windchill Dew Point Humidity Pressure Visibility Wind Dir Wind Speed Gust Speed Precip Events Conditions
12:15 AM 47.8 °F - 39.2 °F 72% 30.23 in 10.0 mi WNW 3.5 mph - N/A   Clear
12:35 AM 48.4 °F - 39.0 °F 70% 30.23 in 10.0 mi Calm Calm - N/A   Clear
12:55 AM 45.7 °F 43.4 °F 39.4 °F 79% 30.22 in 10.0 mi NNW 4.6 mph - N/A   Clear
1:15 AM 46.8 °F - 39.0 °F 74% 30.22 in 10.0 mi Calm Calm - N/A   Clear
1:35 AM 46.0 °F - 39.9 °F 79% 30.23 in 10.0 mi Calm Calm - N/A   Clear
1:55 AM 44.8 °F - 39.4 °F 81% 30.23 in 10.0 mi Calm Calm - N/A   Clear
2:15 AM 46.0 °F 44.8 °F 38.7 °F 75% 30.23 in 10.0 mi NW 3.5 mph - N/A   Clear
2:35 AM 48.4 °F - 37.9 °F 67% 30.23 in 10.0 mi NNW 6.9 mph - N/A   Clear
2:55 AM 48.9 °F - 37.0 °F 64% 30.24 in 10.0 mi NNW 6.9 mph - N/A   Clear
3:15 AM 46.6 °F - 37.8 °F 71% 30.24 in 10.0 mi NNW 4.6 mph - N/A   Clear
3:35 AM 44.6 °F - 37.9 °F 77% 30.23 in 10.0 mi Calm Calm - N/A   Clear
3:55 AM 43.0 °F - 38.8 °F 85% 30.24 in 10.0 mi Calm Calm - N/A   Clear
4:15 AM 41.9 °F - 37.4 °F 84% 30.25 in 10.0 mi Calm Calm - N/A   Clear
4:35 AM 40.3 °F - 37.2 °F 89% 30.25 in 10.0 mi Calm Calm - N/A   Clear
4:55 AM 46.0 °F 43.1 °F 33.3 °F 61% 30.25 in 10.0 mi North 5.8 mph - N/A   Clear
5:15 AM 48.2 °F - 32.7 °F 55% 30.25 in 10.0 mi North 6.9 mph - N/A   Clear
5:35 AM 48.4 °F - 32.0 °F 53% 30.25 in 10.0 mi NNW 5.8 mph - N/A   Clear
5:55 AM 48.4 °F - 32.0 °F 53% 30.25 in 10.0 mi NNW 6.9 mph - N/A   Clear
6:15 AM 47.7 °F - 32.5 °F 56% 30.26 in 10.0 mi NNW 8.1 mph - N/A   Clear
6:35 AM 48.2 °F - 33.6 °F 57% 30.26 in 10.0 mi NNW 11.5 mph 16.1 mph N/A   Clear
6:55 AM 48.7 °F - 33.8 °F 56% 30.26 in 10.0 mi NNW 13.8 mph 24.2 mph N/A   Clear
7:15 AM 49.3 °F - 33.8 °F 55% 30.26 in 10.0 mi NNW 16.1 mph 20.7 mph N/A   Clear
7:35 AM 50.2 °F - 33.1 °F 52% 30.27 in 10.0 mi NNW 15.0 mph 24.2 mph N/A   Clear
7:55 AM 51.3 °F - 33.4 °F 51% 30.28 in 10.0 mi North 9.2 mph 17.3 mph N/A   Clear
8:15 AM 52.2 °F - 32.4 °F 47% 30.28 in 10.0 mi North 11.5 mph - N/A   Clear
8:35 AM 53.6 °F - 31.8 °F 44% 30.28 in 10.0 mi NNW 10.4 mph 18.4 mph N/A   Clear
8:55 AM 54.9 °F - 30.9 °F 40% 30.29 in 10.0 mi North 5.8 mph - N/A   Clear
9:15 AM 57.4 °F - 31.3 °F 37% 30.29 in 10.0 mi NNW 4.6 mph - N/A   Clear
9:35 AM 59.2 °F - 29.8 °F 33% 30.29 in 10.0 mi NNW 3.5 mph - N/A   Clear
9:55 AM 60.8 °F - 27.9 °F 29% 30.29 in 10.0 mi NW 11.5 mph - N/A   Clear
10:15 AM 62.1 °F - 28.2 °F 28% 30.29 in 10.0 mi WNW 5.8 mph 17.3 mph N/A   Clear
10:35 AM 62.6 °F - 27.7 °F 27% 30.29 in 10.0 mi NW 11.5 mph 18.4 mph N/A   Clear
10:55 AM 63.5 °F - 30.2 °F 29% 30.29 in 10.0 mi NW 9.2 mph - N/A   Clear
11:15 AM 64.4 °F - 29.8 °F 27% 30.30 in 10.0 mi NW 8.1 mph 17.3 mph N/A   Clear
11:35 AM 64.4 °F - 27.9 °F 25% 30.29 in 10.0 mi NW 8.1 mph - N/A   Clear
11:55 AM 66.0 °F - 29.5 °F 25% 30.29 in 10.0 mi NW 11.5 mph 18.4 mph N/A   Clear
12:15 PM 66.4 °F - 30.6 °F 26% 30.28 in 10.0 mi NNW 9.2 mph - N/A   Clear
12:35 PM 68.0 °F - 32.7 °F 27% 30.27 in 10.0 mi North 5.8 mph - N/A   Clear
12:55 PM 68.4 °F - 30.2 °F 24% 30.25 in 10.0 mi North 4.6 mph - N/A   Clear
1:15 PM 68.9 °F - 31.8 °F 25% 30.25 in 10.0 mi North 9.2 mph - N/A   Clear
1:35 PM 69.8 °F - 33.1 °F 26% 30.25 in 10.0 mi NW 6.9 mph - N/A   Clear
1:55 PM 70.0 °F - 31.6 °F 24% 30.24 in 10.0 mi NW 11.5 mph - N/A   Clear
2:15 PM 69.8 °F - 33.8 °F 27% 30.23 in 10.0 mi West 4.6 mph - N/A   Clear
2:35 PM 71.1 °F - 30.7 °F 22% 30.22 in 10.0 mi NNW 4.6 mph - N/A   Clear
2:55 PM 68.0 °F - 30.7 °F 25% 30.21 in 10.0 mi WNW 4.6 mph - N/A   Clear
3:15 PM 71.4 °F - 31.6 °F 23% 30.21 in 10.0 mi NW 3.5 mph - N/A   Clear
3:35 PM 70.7 °F - 35.4 °F 27% 30.21 in 10.0 mi ENE 4.6 mph - N/A   Clear
3:55 PM 73.0 °F - 37.2 °F 27% 30.19 in 10.0 mi North 4.6 mph - N/A   Clear
4:15 PM 74.3 °F - 34.9 °F 24% 30.19 in 10.0 mi NNW 10.4 mph - N/A   Clear
4:35 PM 75.2 °F - 34.3 °F 23% 30.19 in 10.0 mi NNW 11.5 mph 17.3 mph N/A   Clear
4:55 PM 72.9 °F - 36.5 °F 27% 30.19 in 10.0 mi North 4.6 mph - N/A   Clear
5:15 PM 74.7 °F - 35.2 °F 24% 30.18 in 10.0 mi NNE 5.8 mph - N/A   Clear
5:35 PM 72.0 °F - 36.5 °F 27% 30.18 in 10.0 mi Calm Calm - N/A   Clear
5:55 PM 72.5 °F - 33.4 °F 24% 30.18 in 10.0 mi NNW 9.2 mph - N/A   Clear
6:15 PM 71.8 °F - 36.3 °F 27% 30.18 in 10.0 mi North 6.9 mph - N/A   Clear
6:35 PM 69.8 °F - 35.6 °F 28% 30.19 in 10.0 mi North 5.8 mph - N/A   Clear
6:55 PM 67.6 °F - 39.0 °F 35% 30.19 in 10.0 mi North 4.6 mph - N/A   Clear
7:15 PM 66.2 °F - 40.5 °F 39% 30.20 in 10.0 mi North 4.6 mph - N/A   Clear
7:35 PM 66.0 °F - 39.2 °F 37% 30.20 in 10.0 mi North 4.6 mph - N/A   Clear
7:55 PM 65.1 °F - 38.8 °F 38% 30.21 in 10.0 mi North 4.6 mph - N/A   Clear
8:15 PM 63.9 °F - 37.4 °F 38% 30.21 in 10.0 mi NNW 5.8 mph - N/A   Clear
8:35 PM 59.7 °F - 45.0 °F 58% 30.21 in 10.0 mi Calm Calm - N/A   Clear
8:55 PM 57.7 °F - 41.7 °F 55% 30.22 in 10.0 mi Calm Calm - N/A   Clear
9:15 PM 58.3 °F - 36.1 °F 44% 30.22 in 10.0 mi NNW 5.8 mph - N/A   Clear
9:35 PM 56.7 °F - 36.5 °F 47% 30.22 in 10.0 mi NNW 8.1 mph - N/A   Clear
9:55 PM 56.3 °F - 36.7 °F 48% 30.23 in 10.0 mi NW 5.8 mph - N/A   Clear
10:15 PM 58.1 °F - 34.2 °F 41% 30.24 in 10.0 mi North 8.1 mph - N/A   Clear
10:35 PM 58.6 °F - 34.2 °F 40% 30.25 in 10.0 mi North 5.8 mph - N/A   Clear
10:55 PM 58.1 °F - 35.4 °F 43% 30.25 in 10.0 mi NNW 8.1 mph - N/A   Clear
11:15 PM 57.4 °F - 36.0 °F 45% 30.24 in 10.0 mi NNW 6.9 mph - N/A   Clear
11:35 PM 57.0 °F - 36.1 °F 46% 30.24 in 10.0 mi NNW 8.1 mph - N/A   Clear
11:55 PM 56.3 °F - 37.9 °F 50% 30.25 in 10.0 mi Calm Calm - N/A   Clear